createdAt,value
2023-09-02T00:00:07.631Z,74.67
2023-09-02T00:01:07.673Z,74.97
2023-09-02T00:02:07.572Z,75.07
2023-09-02T00:03:07.668Z,75.17
2023-09-02T00:04:07.783Z,75.27
2023-09-02T00:05:07.664Z,75.47
2023-09-02T00:06:08.106Z,75.57
2023-09-02T00:07:07.607Z,75.57
2023-09-02T00:08:07.575Z,75.27
2023-09-02T00:09:07.513Z,75.27
2023-09-02T00:10:07.525Z,75.47
2023-09-02T00:11:07.624Z,75.37
2023-09-02T00:12:07.539Z,75.67
2023-09-02T00:13:07.533Z,75.57
2023-09-02T00:14:07.642Z,75.37
2023-09-02T00:15:07.454Z,75.37
2023-09-02T00:16:07.482Z,75.47
2023-09-02T00:17:07.461Z,75.57
2023-09-02T00:18:08.186Z,75.47
2023-09-02T00:19:07.567Z,75.37
2023-09-02T00:20:07.912Z,75.17
2023-09-02T00:21:07.370Z,74.97
2023-09-02T00:22:07.413Z,75.07
2023-09-02T00:23:07.406Z,75.17
2023-09-02T00:24:07.387Z,75.17
2023-09-02T00:25:07.387Z,75.07
2023-09-02T00:26:07.389Z,75.37
2023-09-02T00:27:07.292Z,75.41
2023-09-02T00:28:07.340Z,75.71
2023-09-02T00:29:07.312Z,75.91
2023-09-02T00:30:07.328Z,76.11
2023-09-02T00:31:07.290Z,76.31
2023-09-02T00:32:07.265Z,76.21
2023-09-02T00:33:07.281Z,76.11
2023-09-02T00:34:07.256Z,76.34
2023-09-02T00:35:07.279Z,76.34
2023-09-02T00:36:07.314Z,76.34
2023-09-02T00:37:07.191Z,76.34
2023-09-02T00:38:07.228Z,76.34
2023-09-02T00:39:07.173Z,76.45
2023-09-02T00:40:07.242Z,76.75
2023-09-02T00:41:07.221Z,76.65
2023-09-02T00:42:07.138Z,76.25
2023-09-02T00:43:07.136Z,76.25
2023-09-02T00:44:07.118Z,76.25
2023-09-02T00:45:07.121Z,76.31
2023-09-02T00:46:07.155Z,76.11
2023-09-02T00:47:07.130Z,76.01
2023-09-02T00:48:07.099Z,75.47
2023-09-02T00:49:07.085Z,75.07
2023-09-02T00:50:07.052Z,75.10
2023-09-02T00:51:07.160Z,75.41
2023-09-02T00:52:07.218Z,75.91
2023-09-02T00:53:07.059Z,76.25
2023-09-02T00:54:07.075Z,76.65
2023-09-02T00:55:07.248Z,76.75
2023-09-02T00:56:07.090Z,76.98
2023-09-02T00:57:06.992Z,77.19
2023-09-02T00:58:06.999Z,77.39
2023-09-02T00:59:07.016Z,77.48
2023-09-02T01:00:07.020Z,77.59
2023-09-02T01:01:06.961Z,77.69
2023-09-02T01:02:06.930Z,77.89
2023-09-02T01:03:07.040Z,77.89
2023-09-02T01:04:06.947Z,77.89
2023-09-02T01:05:06.942Z,77.79
2023-09-02T01:06:06.877Z,77.59
2023-09-02T01:07:06.875Z,77.69
2023-09-02T01:08:06.860Z,78.03
2023-09-02T01:09:06.864Z,78.33
2023-09-02T01:10:06.991Z,78.22
2023-09-02T01:11:06.883Z,78.33
2023-09-02T01:12:06.825Z,78.12
2023-09-02T01:13:06.825Z,78.12
2023-09-02T01:14:06.817Z,78.22
2023-09-02T01:15:06.824Z,78.33
2023-09-02T01:16:06.848Z,78.42
2023-09-02T01:17:06.791Z,78.56
2023-09-02T01:18:06.808Z,78.66
2023-09-02T01:19:06.750Z,78.77
2023-09-02T01:20:06.772Z,78.77
2023-09-02T01:21:06.757Z,78.97
2023-09-02T01:22:06.767Z,78.97
2023-09-02T01:23:06.876Z,78.97
2023-09-02T01:24:06.706Z,79.06
2023-09-02T01:25:06.781Z,79.17
2023-09-02T01:26:06.851Z,79.17
2023-09-02T01:27:07.218Z,79.27
2023-09-02T01:28:06.733Z,79.37
2023-09-02T01:29:06.762Z,79.27
2023-09-02T01:30:06.636Z,79.27
2023-09-02T01:31:06.765Z,79.27
2023-09-02T01:32:06.717Z,79.27
2023-09-02T01:33:06.664Z,79.27
2023-09-02T01:34:06.757Z,79.27
2023-09-02T01:35:06.575Z,79.17
2023-09-02T01:36:06.581Z,79.06
2023-09-02T01:37:06.570Z,79.17
2023-09-02T01:38:06.591Z,79.27
2023-09-02T01:39:08.262Z,79.27
2023-09-02T01:40:06.600Z,79.27
2023-09-02T01:41:06.574Z,79.27
2023-09-02T01:42:06.581Z,79.17
2023-09-02T01:43:06.519Z,79.17
2023-09-02T01:44:06.525Z,79.17
2023-09-02T01:45:06.757Z,79.27
2023-09-02T01:46:06.604Z,79.27
2023-09-02T01:47:06.483Z,79.27
2023-09-02T01:48:06.494Z,79.17
2023-09-02T01:49:06.497Z,79.17
2023-09-02T01:50:06.487Z,79.06
2023-09-02T01:51:06.678Z,79.06
2023-09-02T01:52:06.456Z,79.06
2023-09-02T01:53:06.393Z,78.97
2023-09-02T01:54:06.440Z,78.97
2023-09-02T01:55:06.397Z,79.06
2023-09-02T01:56:06.512Z,79.17
2023-09-02T01:57:06.403Z,79.17
2023-09-02T01:58:06.391Z,78.97
2023-09-02T01:59:06.331Z,79.06
2023-09-02T02:00:06.360Z,79.17
2023-09-02T02:01:07.215Z,79.06
2023-09-02T02:02:06.319Z,79.17
2023-09-02T02:03:06.358Z,79.17
2023-09-02T02:04:06.345Z,79.06
2023-09-02T02:05:06.345Z,79.17
2023-09-02T02:06:06.361Z,79.37
2023-09-02T02:07:06.235Z,79.37
2023-09-02T02:08:06.184Z,79.27
2023-09-02T02:09:06.180Z,79.27
2023-09-02T02:10:06.805Z,79.17
2023-09-02T02:11:06.204Z,79.17
2023-09-02T02:12:06.203Z,79.27
2023-09-02T02:13:06.104Z,79.30
2023-09-02T02:14:06.140Z,79.41
2023-09-02T02:15:06.128Z,79.71
2023-09-02T02:16:06.153Z,79.81
2023-09-02T02:17:06.115Z,79.91
2023-09-02T02:18:06.080Z,79.91
2023-09-02T02:19:06.044Z,79.91
2023-09-02T02:20:06.068Z,79.91
2023-09-02T02:21:06.063Z,80.01
2023-09-02T02:22:06.071Z,80.01
2023-09-02T02:23:06.246Z,79.91
2023-09-02T02:24:06.045Z,79.91
2023-09-02T02:25:05.984Z,79.81
2023-09-02T02:26:06.224Z,79.81
2023-09-02T02:27:06.077Z,79.81
2023-09-02T02:28:05.977Z,79.71
2023-09-02T02:29:06.015Z,79.67
2023-09-02T02:30:06.028Z,79.57
2023-09-02T02:31:05.923Z,79.37
2023-09-02T02:32:06.002Z,79.37
2023-09-02T02:33:05.965Z,79.27
2023-09-02T02:34:05.914Z,79.06
2023-09-02T02:35:06.002Z,79.06
2023-09-02T02:36:06.439Z,78.97
2023-09-02T02:37:05.839Z,78.97
2023-09-02T02:38:05.961Z,78.97
2023-09-02T02:39:05.859Z,78.77
2023-09-02T02:40:05.860Z,78.56
2023-09-02T02:41:05.885Z,78.66
2023-09-02T02:42:05.788Z,78.77
2023-09-02T02:43:05.781Z,78.63
2023-09-02T02:44:05.797Z,78.53
2023-09-02T02:45:05.871Z,78.42
2023-09-02T02:46:05.824Z,78.22
2023-09-02T02:47:05.886Z,78.22
2023-09-02T02:48:05.835Z,77.92
2023-09-02T02:49:05.714Z,78.12
2023-09-02T02:50:05.738Z,78.22
2023-09-02T02:51:05.761Z,78.03
2023-09-02T02:52:05.748Z,78.03
2023-09-02T02:53:05.743Z,78.22
2023-09-02T02:54:05.650Z,78.22
2023-09-02T02:55:05.672Z,78.33
2023-09-02T02:56:05.662Z,78.22
2023-09-02T02:57:05.671Z,78.42
2023-09-02T02:58:05.691Z,78.46
2023-09-02T02:59:05.585Z,78.42
2023-09-02T03:00:06.276Z,78.53
2023-09-02T03:01:05.715Z,78.42
2023-09-02T03:02:05.603Z,78.42
2023-09-02T03:03:05.786Z,78.42
2023-09-02T03:04:05.637Z,78.12
2023-09-02T03:05:05.520Z,78.22
2023-09-02T03:06:05.575Z,78.42
2023-09-02T03:07:05.640Z,78.42
2023-09-02T03:08:05.555Z,78.42
2023-09-02T03:09:05.518Z,78.53
2023-09-02T03:10:05.523Z,78.42
2023-09-02T03:11:05.538Z,78.53
2023-09-02T03:12:05.573Z,78.53
2023-09-02T03:13:05.478Z,78.63
2023-09-02T03:14:05.491Z,78.77
2023-09-02T03:15:05.496Z,78.77
2023-09-02T03:16:05.500Z,78.86
2023-09-02T03:17:05.444Z,78.86
2023-09-02T03:18:05.479Z,78.86
2023-09-02T03:19:06.442Z,78.86
2023-09-02T03:20:05.392Z,78.73
2023-09-02T03:21:05.731Z,78.86
2023-09-02T03:22:05.437Z,78.86
2023-09-02T03:23:05.338Z,78.86
2023-09-02T03:24:05.358Z,78.77
2023-09-02T03:25:05.523Z,78.86
2023-09-02T03:26:05.408Z,78.86
2023-09-02T03:27:05.362Z,79.06
2023-09-02T03:28:05.305Z,79.17
2023-09-02T03:29:05.283Z,79.17
2023-09-02T03:30:05.344Z,79.27
2023-09-02T03:31:05.329Z,79.47
2023-09-02T03:32:05.269Z,79.57
2023-09-02T03:33:05.387Z,79.57
2023-09-02T03:34:05.238Z,79.67
2023-09-02T03:35:05.221Z,79.67
2023-09-02T03:36:05.210Z,79.67
2023-09-02T03:37:05.198Z,79.57
2023-09-02T03:38:05.198Z,79.57
2023-09-02T03:39:05.216Z,79.57
2023-09-02T03:40:05.218Z,79.57
2023-09-02T03:41:05.153Z,79.57
2023-09-02T03:42:05.134Z,79.57
2023-09-02T03:43:05.116Z,79.77
2023-09-02T03:44:05.196Z,79.67
2023-09-02T03:45:05.079Z,79.67
2023-09-02T03:46:05.085Z,79.67
2023-09-02T03:47:05.143Z,79.67
2023-09-02T03:48:05.151Z,79.67
2023-09-02T03:49:05.269Z,79.67
2023-09-02T03:50:05.189Z,79.77
2023-09-02T03:51:05.230Z,79.87
2023-09-02T03:52:05.012Z,79.87
2023-09-02T03:53:04.981Z,79.77
2023-09-02T03:54:05.008Z,79.87
2023-09-02T03:55:05.006Z,79.77
2023-09-02T03:56:05.026Z,79.77
2023-09-02T03:57:05.032Z,79.87
2023-09-02T03:58:04.941Z,79.87
2023-09-02T03:59:04.947Z,79.87
2023-09-02T04:00:04.943Z,80.07
2023-09-02T04:01:05.007Z,80.07
2023-09-02T04:02:04.940Z,79.97
2023-09-02T04:03:05.011Z,79.97
2023-09-02T04:04:04.880Z,79.97
2023-09-02T04:05:04.855Z,80.07
2023-09-02T04:06:04.978Z,80.07
2023-09-02T04:07:04.873Z,80.07
2023-09-02T04:08:05.268Z,79.97
2023-09-02T04:09:04.906Z,79.97
2023-09-02T04:10:04.790Z,80.07
2023-09-02T04:11:04.820Z,80.17
2023-09-02T04:12:04.834Z,80.37
2023-09-02T04:13:04.810Z,80.27
2023-09-02T04:14:05.766Z,80.37
2023-09-02T04:15:04.838Z,80.47
2023-09-02T04:16:04.724Z,80.57
2023-09-02T04:17:04.821Z,80.68
2023-09-02T04:18:04.773Z,80.77
2023-09-02T04:19:04.803Z,80.98
2023-09-02T04:20:04.759Z,81.21
2023-09-02T04:21:04.684Z,81.32
2023-09-02T04:22:04.784Z,81.32
2023-09-02T04:23:04.689Z,81.32
2023-09-02T04:24:04.701Z,81.41
2023-09-02T04:25:04.914Z,81.52
2023-09-02T04:26:04.731Z,81.52
2023-09-02T04:27:04.610Z,81.41
2023-09-02T04:28:04.620Z,81.32
2023-09-02T04:29:04.633Z,81.32
2023-09-02T04:30:04.641Z,81.18
2023-09-02T04:31:05.261Z,81.18
2023-09-02T04:32:04.645Z,81.07
2023-09-02T04:33:04.650Z,81.07
2023-09-02T04:34:04.558Z,81.18
2023-09-02T04:35:04.591Z,81.41
2023-09-02T04:36:04.807Z,81.52
2023-09-02T04:37:04.567Z,81.41
2023-09-02T04:38:04.488Z,81.52
2023-09-02T04:39:05.128Z,81.62
2023-09-02T04:40:04.505Z,81.82
2023-09-02T04:41:04.515Z,81.82
2023-09-02T04:42:04.737Z,82.02
2023-09-02T04:43:04.533Z,82.02
2023-09-02T04:44:04.442Z,82.12
2023-09-02T04:45:04.423Z,82.12
2023-09-02T04:46:04.569Z,82.02
2023-09-02T04:47:04.463Z,82.12
2023-09-02T04:48:04.618Z,82.02
2023-09-02T04:49:04.450Z,82.22
2023-09-02T04:50:04.373Z,82.22
2023-09-02T04:51:04.362Z,82.42
2023-09-02T04:52:05.004Z,82.42
2023-09-02T04:53:04.401Z,82.52
2023-09-02T04:54:04.477Z,82.52
2023-09-02T04:55:04.380Z,82.52
2023-09-02T04:56:04.310Z,82.52
2023-09-02T04:57:04.326Z,82.52
2023-09-02T04:58:04.330Z,82.42
2023-09-02T04:59:04.347Z,82.52
2023-09-02T05:00:04.325Z,82.52
2023-09-02T05:01:04.248Z,82.62
2023-09-02T05:02:04.383Z,82.62
2023-09-02T05:03:04.344Z,82.62
2023-09-02T05:04:05.259Z,82.72
2023-09-02T05:05:04.258Z,82.82
2023-09-02T05:06:04.636Z,82.82
2023-09-02T05:07:04.196Z,82.92
2023-09-02T05:08:04.197Z,83.03
2023-09-02T05:09:04.204Z,83.06
2023-09-02T05:10:04.218Z,83.17
2023-09-02T05:11:04.292Z,83.26
2023-09-02T05:12:04.221Z,83.37
2023-09-02T05:13:04.112Z,83.47
2023-09-02T05:14:04.136Z,83.57
2023-09-02T05:15:04.313Z,83.47
2023-09-02T05:16:04.181Z,83.47
2023-09-02T05:17:04.149Z,83.37
2023-09-02T05:18:04.207Z,83.26
2023-09-02T05:19:04.148Z,83.03
2023-09-02T05:20:04.054Z,83.03
2023-09-02T05:21:04.062Z,82.92
2023-09-02T05:22:04.081Z,82.82
2023-09-02T05:23:04.135Z,82.82
2023-09-02T05:24:03.994Z,82.82
2023-09-02T05:25:04.419Z,82.72
2023-09-02T05:26:04.083Z,82.72
2023-09-02T05:27:04.008Z,82.82
2023-09-02T05:28:04.001Z,82.82
2023-09-02T05:29:04.015Z,82.82
2023-09-02T05:30:04.019Z,82.92
2023-09-02T05:31:03.919Z,82.92
2023-09-02T05:32:03.943Z,83.12
2023-09-02T05:33:04.287Z,83.26
2023-09-02T05:34:03.929Z,83.37
2023-09-02T05:35:03.952Z,83.47
2023-09-02T05:36:03.945Z,83.47
2023-09-02T05:37:03.869Z,83.37
2023-09-02T05:38:03.982Z,83.37
2023-09-02T05:39:04.799Z,83.26
2023-09-02T05:40:03.867Z,83.26
2023-09-02T05:41:03.795Z,83.26
2023-09-02T05:42:03.928Z,83.26
2023-09-02T05:43:03.814Z,83.26
2023-09-02T05:44:03.924Z,83.37
2023-09-02T05:45:03.815Z,83.37
2023-09-02T05:46:03.821Z,83.37
2023-09-02T05:47:04.748Z,83.47
2023-09-02T05:48:03.827Z,83.57
2023-09-02T05:49:03.740Z,83.57
2023-09-02T05:50:03.740Z,83.67
2023-09-02T05:51:03.841Z,83.67
2023-09-02T05:52:03.773Z,83.76
2023-09-02T05:53:03.724Z,83.76
2023-09-02T05:54:03.790Z,83.76
2023-09-02T05:55:03.680Z,83.76
2023-09-02T05:56:03.787Z,83.76
2023-09-02T05:57:03.694Z,83.87
2023-09-02T05:58:03.638Z,83.76
2023-09-02T05:59:03.640Z,83.97
2023-09-02T06:00:03.606Z,83.97
2023-09-02T06:01:03.843Z,84.07
2023-09-02T06:02:03.609Z,84.27
2023-09-02T06:03:03.718Z,84.41
2023-09-02T06:04:03.595Z,84.37
2023-09-02T06:05:03.582Z,84.37
2023-09-02T06:06:03.545Z,84.47
2023-09-02T06:07:03.548Z,84.51
2023-09-02T06:08:03.547Z,84.51
2023-09-02T06:09:03.675Z,84.51
2023-09-02T06:10:03.534Z,84.61
2023-09-02T06:11:03.566Z,84.71
2023-09-02T06:12:03.507Z,84.91
2023-09-02T06:13:03.505Z,84.91
2023-09-02T06:14:03.502Z,85.02
2023-09-02T06:15:03.496Z,85.02
2023-09-02T06:16:03.470Z,85.11
2023-09-02T06:17:03.519Z,85.11
2023-09-02T06:18:03.449Z,84.91
2023-09-02T06:19:03.427Z,84.91
2023-09-02T06:20:03.421Z,84.91
2023-09-02T06:21:03.429Z,84.81
2023-09-02T06:22:03.395Z,84.61
2023-09-02T06:23:03.368Z,84.61
2023-09-02T06:24:03.362Z,84.51
2023-09-02T06:25:03.417Z,84.51
2023-09-02T06:26:03.325Z,84.61
2023-09-02T06:27:03.385Z,84.71
2023-09-02T06:28:03.285Z,84.81
2023-09-02T06:29:03.280Z,84.91
2023-09-02T06:30:04.255Z,84.81
2023-09-02T06:31:03.459Z,84.81
2023-09-02T06:32:03.244Z,84.71
2023-09-02T06:33:03.340Z,84.81
2023-09-02T06:34:03.259Z,84.71
2023-09-02T06:35:03.226Z,84.71
2023-09-02T06:36:03.226Z,84.81
2023-09-02T06:37:03.174Z,84.81
2023-09-02T06:38:03.192Z,84.81
2023-09-02T06:39:03.170Z,84.71
2023-09-02T06:40:03.206Z,84.91
2023-09-02T06:41:04.758Z,84.91
2023-09-02T06:42:03.211Z,85.02
2023-09-02T06:43:03.192Z,85.22
2023-09-02T06:44:03.127Z,85.42
2023-09-02T06:45:03.128Z,85.31
2023-09-02T06:46:03.201Z,85.31
2023-09-02T06:47:03.141Z,85.22
2023-09-02T06:48:03.132Z,85.22
2023-09-02T06:49:03.046Z,85.22
2023-09-02T06:50:03.053Z,85.11
2023-09-02T06:51:03.138Z,85.02
2023-09-02T06:52:03.023Z,85.11
2023-09-02T06:53:03.033Z,85.11
2023-09-02T06:54:03.033Z,85.42
2023-09-02T06:55:02.994Z,85.42
2023-09-02T06:56:03.050Z,85.42
2023-09-02T06:57:03.057Z,85.46
2023-09-02T06:58:03.011Z,85.42
2023-09-02T06:59:03.022Z,85.56
2023-09-02T07:00:02.920Z,85.56
2023-09-02T07:01:03.042Z,85.56
2023-09-02T07:02:02.940Z,85.56
2023-09-02T07:03:03.025Z,85.56
2023-09-02T07:04:02.917Z,85.56
2023-09-02T07:05:03.010Z,85.56
2023-09-02T07:06:02.919Z,85.56
2023-09-02T07:07:02.857Z,85.56
2023-09-02T07:08:02.869Z,85.56
2023-09-02T07:09:02.837Z,85.56
2023-09-02T07:10:03.316Z,85.52
2023-09-02T07:11:02.888Z,85.42
2023-09-02T07:12:02.855Z,85.42
2023-09-02T07:13:02.808Z,85.56
2023-09-02T07:14:02.804Z,85.56
2023-09-02T07:15:02.880Z,85.66
2023-09-02T07:16:02.835Z,85.66
2023-09-02T07:17:03.343Z,85.76
2023-09-02T07:18:05.231Z,85.76
2023-09-02T07:19:02.804Z,85.96
2023-09-02T07:20:02.813Z,86.06
2023-09-02T07:21:02.863Z,86.06
2023-09-02T07:22:02.760Z,85.96
2023-09-02T07:23:03.124Z,86.06
2023-09-02T07:24:02.673Z,86.16
2023-09-02T07:25:02.777Z,86.26
2023-09-02T07:26:03.013Z,86.26
2023-09-02T07:27:02.696Z,86.26
2023-09-02T07:28:02.800Z,86.06
2023-09-02T07:29:02.695Z,86.06
2023-09-02T07:30:02.608Z,85.86
2023-09-02T07:31:03.287Z,85.76
2023-09-02T07:32:02.627Z,85.76
2023-09-02T07:33:02.636Z,85.66
2023-09-02T07:34:02.633Z,85.66
2023-09-02T07:35:02.706Z,85.66
2023-09-02T07:36:02.608Z,85.66
2023-09-02T07:37:02.573Z,85.76
2023-09-02T07:38:02.829Z,85.56
2023-09-02T07:39:02.559Z,85.46
2023-09-02T07:40:02.563Z,85.66
2023-09-02T07:41:02.552Z,85.66
2023-09-02T07:42:02.474Z,85.66
2023-09-02T07:43:02.484Z,85.76
2023-09-02T07:44:02.564Z,85.76
2023-09-02T07:45:02.497Z,85.52
2023-09-02T07:46:02.504Z,85.56
2023-09-02T07:47:03.022Z,85.66
2023-09-02T07:48:02.545Z,85.66
2023-09-02T07:49:02.470Z,85.76
2023-09-02T07:50:02.447Z,85.76
2023-09-02T07:51:02.467Z,85.96
2023-09-02T07:52:02.468Z,86.06
2023-09-02T07:53:02.392Z,86.16
2023-09-02T07:54:02.591Z,86.26
2023-09-02T07:55:02.437Z,86.36
2023-09-02T07:56:02.445Z,86.26
2023-09-02T07:57:02.401Z,86.26
2023-09-02T07:58:02.380Z,85.96
2023-09-02T07:59:02.384Z,85.96
2023-09-02T08:00:02.531Z,85.96
2023-09-02T08:01:02.478Z,85.86
2023-09-02T08:02:02.359Z,86.06
2023-09-02T08:03:02.348Z,86.06
2023-09-02T08:04:05.067Z,85.96
2023-09-02T08:05:02.270Z,85.96
2023-09-02T08:06:02.249Z,85.96
2023-09-02T08:07:02.357Z,85.96
2023-09-02T08:08:02.262Z,85.96
2023-09-02T08:09:02.199Z,86.06
2023-09-02T08:10:02.251Z,86.06
2023-09-02T08:11:02.194Z,86.06
2023-09-02T08:12:02.165Z,86.06
2023-09-02T08:13:02.197Z,86.06
2023-09-02T08:14:02.207Z,86.16
2023-09-02T08:15:02.144Z,86.16
2023-09-02T08:16:02.224Z,86.16
2023-09-02T08:17:02.147Z,86.26
2023-09-02T08:18:02.237Z,86.46
2023-09-02T08:19:02.162Z,86.61
2023-09-02T08:20:02.167Z,86.71
2023-09-02T08:21:02.082Z,86.71
2023-09-02T08:22:02.150Z,86.71
2023-09-02T08:23:02.062Z,86.71
2023-09-02T08:24:02.110Z,86.66
2023-09-02T08:25:02.067Z,86.57
2023-09-02T08:26:02.074Z,86.46
2023-09-02T08:27:02.009Z,86.36
2023-09-02T08:28:02.026Z,86.36
2023-09-02T08:29:01.992Z,86.36
2023-09-02T08:30:02.033Z,86.36
2023-09-02T08:31:02.044Z,86.46
2023-09-02T08:32:01.939Z,86.46
2023-09-02T08:33:02.042Z,86.61
2023-09-02T08:34:01.956Z,86.81
2023-09-02T08:35:01.924Z,86.71
2023-09-02T08:36:01.951Z,86.71
2023-09-02T08:37:02.049Z,86.57
2023-09-02T08:38:01.950Z,86.57
2023-09-02T08:39:01.863Z,86.46
2023-09-02T08:40:01.890Z,86.36
2023-09-02T08:41:01.890Z,86.26
2023-09-02T08:42:01.798Z,86.16
2023-09-02T08:43:01.824Z,86.26
2023-09-02T08:44:01.792Z,86.26
2023-09-02T08:45:01.886Z,86.26
2023-09-02T08:46:01.798Z,86.16
2023-09-02T08:47:01.805Z,86.06
2023-09-02T08:48:01.832Z,86.06
2023-09-02T08:49:01.746Z,86.16
2023-09-02T08:50:01.779Z,86.16
2023-09-02T08:51:01.821Z,86.06
2023-09-02T08:52:01.731Z,86.16
2023-09-02T08:53:01.770Z,86.26
2023-09-02T08:54:01.686Z,86.26
2023-09-02T08:55:01.748Z,86.26
2023-09-02T08:56:01.872Z,86.06
2023-09-02T08:57:01.673Z,86.06
2023-09-02T08:58:01.841Z,85.96
2023-09-02T08:59:01.685Z,86.06
2023-09-02T09:00:01.699Z,86.16
2023-09-02T09:01:01.787Z,86.26
2023-09-02T09:02:01.694Z,86.26
2023-09-02T09:03:01.719Z,86.16
2023-09-02T09:04:01.664Z,86.16
2023-09-02T09:05:01.646Z,86.26
2023-09-02T09:06:01.661Z,86.51
2023-09-02T09:07:01.523Z,86.61
2023-09-02T09:08:01.572Z,86.61
2023-09-02T09:09:01.677Z,86.61
2023-09-02T09:10:01.618Z,86.71
2023-09-02T09:11:01.562Z,86.71
2023-09-02T09:12:01.557Z,86.71
2023-09-02T09:13:01.568Z,86.81
2023-09-02T09:14:01.580Z,86.81
2023-09-02T09:15:01.628Z,86.91
2023-09-02T09:16:01.523Z,87.01
2023-09-02T09:17:01.436Z,87.11
2023-09-02T09:18:01.528Z,87.11
2023-09-02T09:19:01.440Z,87.01
2023-09-02T09:20:01.470Z,86.91
2023-09-02T09:21:01.408Z,86.81
2023-09-02T09:22:01.372Z,87.01
2023-09-02T09:23:01.363Z,87.01
2023-09-02T09:24:01.430Z,87.11
2023-09-02T09:25:01.336Z,87.31
2023-09-02T09:26:01.386Z,87.31
2023-09-02T09:27:01.756Z,87.41
2023-09-02T09:28:01.293Z,87.41
2023-09-02T09:29:01.300Z,87.51
2023-09-02T09:30:01.308Z,87.51
2023-09-02T09:31:01.357Z,87.41
2023-09-02T09:32:01.329Z,87.41
2023-09-02T09:33:01.316Z,87.41
2023-09-02T09:34:01.234Z,87.41
2023-09-02T09:35:01.335Z,87.31
2023-09-02T09:36:01.249Z,87.41
2023-09-02T09:37:01.207Z,87.41
2023-09-02T09:38:01.265Z,87.45
2023-09-02T09:39:01.351Z,87.51
2023-09-02T09:40:01.172Z,87.51
2023-09-02T09:41:01.341Z,87.55
2023-09-02T09:42:01.139Z,87.65
2023-09-02T09:43:01.162Z,87.65
2023-09-02T09:44:01.411Z,87.65
2023-09-02T09:45:01.102Z,87.76
2023-09-02T09:46:01.148Z,87.85
2023-09-02T09:47:01.116Z,87.96
2023-09-02T09:48:01.160Z,87.96
2023-09-02T09:49:01.099Z,88.06
2023-09-02T09:50:01.094Z,88.06
2023-09-02T09:51:01.143Z,88.06
2023-09-02T09:52:01.049Z,87.96
2023-09-02T09:53:01.127Z,87.96
2023-09-02T09:54:00.995Z,87.96
2023-09-02T09:55:01.068Z,87.76
2023-09-02T09:56:01.005Z,87.85
2023-09-02T09:57:00.982Z,87.76
2023-09-02T09:58:00.991Z,87.65
2023-09-02T09:59:00.988Z,87.62
2023-09-02T10:00:00.995Z,87.51
2023-09-02T10:01:00.962Z,87.41
2023-09-02T10:02:00.978Z,87.21
2023-09-02T10:03:01.016Z,87.21
2023-09-02T10:04:00.917Z,87.21
2023-09-02T10:05:00.978Z,87.11
2023-09-02T10:06:00.870Z,87.11
2023-09-02T10:07:00.901Z,87.21
2023-09-02T10:08:01.002Z,87.11
2023-09-02T10:09:00.855Z,87.21
2023-09-02T10:10:00.860Z,87.21
2023-09-02T10:11:00.861Z,87.11
2023-09-02T10:12:00.871Z,87.11
2023-09-02T10:13:00.826Z,87.11
2023-09-02T10:14:00.857Z,87.01
2023-09-02T10:15:00.790Z,86.91
2023-09-02T10:16:00.887Z,86.81
2023-09-02T10:17:00.808Z,86.71
2023-09-02T10:18:00.843Z,86.71
2023-09-02T10:19:00.755Z,86.71
2023-09-02T10:20:00.762Z,86.57
2023-09-02T10:21:00.731Z,86.57
2023-09-02T10:22:00.733Z,86.46
2023-09-02T10:23:00.743Z,86.46
2023-09-02T10:24:00.694Z,86.46
2023-09-02T10:25:00.719Z,86.57
2023-09-02T10:26:00.690Z,86.46
2023-09-02T10:27:00.669Z,86.36
2023-09-02T10:28:00.668Z,86.36
2023-09-02T10:29:00.675Z,86.46
2023-09-02T10:30:00.625Z,86.46
2023-09-02T10:31:00.679Z,86.36
2023-09-02T10:32:00.637Z,86.26
2023-09-02T10:33:00.640Z,86.16
2023-09-02T10:34:00.601Z,85.96
2023-09-02T10:35:00.669Z,85.96
2023-09-02T10:36:00.733Z,85.96
2023-09-02T10:37:00.563Z,85.82
2023-09-02T10:38:00.576Z,85.82
2023-09-02T10:39:00.533Z,85.62
2023-09-02T10:40:00.580Z,85.82
2023-09-02T10:41:00.648Z,85.52
2023-09-02T10:42:00.556Z,85.28
2023-09-02T10:43:00.436Z,85.17
2023-09-02T10:44:00.542Z,84.97
2023-09-02T10:45:00.475Z,84.57
2023-09-02T10:46:00.488Z,84.07
2023-09-02T10:47:00.516Z,83.97
2023-09-02T10:48:00.582Z,83.97
2023-09-02T10:49:00.419Z,83.97
2023-09-02T10:50:00.410Z,83.83
2023-09-02T10:51:00.415Z,83.83
2023-09-02T10:52:00.424Z,83.83
2023-09-02T10:53:13.882Z,83.63
2023-09-02T10:54:00.370Z,83.53
2023-09-02T10:55:00.355Z,83.23
2023-09-02T10:56:00.377Z,83.33
2023-09-02T10:57:00.399Z,83.33
2023-09-02T10:58:00.364Z,83.29
2023-09-02T10:59:00.382Z,82.92
2023-09-02T11:00:00.302Z,83.03
2023-09-02T11:01:00.307Z,83.18
2023-09-02T11:02:00.304Z,83.29
2023-09-02T11:03:00.433Z,82.58
2023-09-02T11:04:00.230Z,82.78
2023-09-02T11:05:00.252Z,83.09
2023-09-02T11:06:00.234Z,83.18
2023-09-02T11:07:00.248Z,83.69
2023-09-02T11:08:00.247Z,82.58
2023-09-02T11:09:00.232Z,82.18
2023-09-02T11:10:00.222Z,82.78
2023-09-02T11:11:00.170Z,82.64
2023-09-02T11:12:00.186Z,82.24
2023-09-02T11:13:00.164Z,82.34
2023-09-02T11:14:00.190Z,82.84
2023-09-02T11:15:00.492Z,82.04
2023-09-02T11:16:00.124Z,83.11
2023-09-02T11:17:00.115Z,81.90
2023-09-02T11:18:00.170Z,82.10
2023-09-02T11:19:00.225Z,82.10
2023-09-02T11:20:00.210Z,82.31
2023-09-02T11:21:00.049Z,81.50
2023-09-02T11:22:00.047Z,82.20
2023-09-02T11:23:00.047Z,81.40
2023-09-02T11:24:00.035Z,81.10
2023-09-02T11:25:00.032Z,81.30
2023-09-02T11:25:59.965Z,81.24
2023-09-02T11:26:59.969Z,81.94
2023-09-02T11:27:59.995Z,82.20
2023-09-02T11:28:59.981Z,81.80
2023-09-02T11:30:00.003Z,83.01
2023-09-02T11:31:00.070Z,83.21
2023-09-02T11:32:00.011Z,81.46
2023-09-02T11:32:59.994Z,81.16
2023-09-02T11:33:59.910Z,81.36
2023-09-02T11:34:59.904Z,81.96
2023-09-02T11:35:59.947Z,80.72
2023-09-02T11:37:00.003Z,80.92
2023-09-02T11:37:59.865Z,79.92
2023-09-02T11:38:59.885Z,79.62
2023-09-02T11:39:59.868Z,79.62
2023-09-02T11:40:59.859Z,79.62
2023-09-02T11:42:07.351Z,79.72
2023-09-02T11:42:59.859Z,79.52
2023-09-02T11:43:59.776Z,79.52
2023-09-02T11:44:59.877Z,79.62
2023-09-02T11:45:59.991Z,79.02
2023-09-02T11:46:59.820Z,79.58
2023-09-02T11:47:59.866Z,78.88
2023-09-02T11:48:59.790Z,79.68
2023-09-02T11:49:59.788Z,79.34
2023-09-02T11:50:59.732Z,78.24
2023-09-02T11:51:59.753Z,78.04
2023-09-02T11:52:59.758Z,78.14
2023-09-02T11:53:59.738Z,77.74
2023-09-02T11:54:59.719Z,77.91
2023-09-02T11:55:59.671Z,77.91
2023-09-02T11:56:59.700Z,76.56
2023-09-02T11:57:59.681Z,77.06
2023-09-02T11:58:59.666Z,76.37
2023-09-02T11:59:59.683Z,76.17
2023-09-02T12:00:59.681Z,75.96
2023-09-02T12:01:59.747Z,76.37
2023-09-02T12:02:59.652Z,76.46
2023-09-02T12:03:59.621Z,76.26
2023-09-02T12:04:59.620Z,75.76
2023-09-02T12:05:59.642Z,75.76
2023-09-02T12:06:59.602Z,76.17
2023-09-02T12:07:59.529Z,76.17
2023-09-02T12:08:59.755Z,76.67
2023-09-02T12:09:59.733Z,76.06
2023-09-02T12:10:59.777Z,75.56
2023-09-02T12:11:59.955Z,75.63
2023-09-02T12:12:59.982Z,75.52
2023-09-02T12:13:59.600Z,75.13
2023-09-02T12:14:59.583Z,75.73
2023-09-02T12:15:59.737Z,75.23
2023-09-02T12:16:59.795Z,74.63
2023-09-02T12:17:59.543Z,74.53
2023-09-02T12:18:59.476Z,75.33
2023-09-02T12:20:00.816Z,75.23
2023-09-02T12:20:59.426Z,75.83
2023-09-02T12:21:59.428Z,75.43
2023-09-02T12:22:59.443Z,74.79
2023-09-02T12:23:59.416Z,74.69
2023-09-02T12:24:59.424Z,74.49
2023-09-02T12:25:59.358Z,73.99
2023-09-02T12:26:59.347Z,74.16
2023-09-02T12:27:59.460Z,74.05
2023-09-02T12:29:09.935Z,74.26
2023-09-02T12:29:59.314Z,74.72
2023-09-02T12:30:59.390Z,73.62
2023-09-02T12:31:59.409Z,73.12
2023-09-02T12:33:00.003Z,73.32
2023-09-02T12:33:59.414Z,73.52
2023-09-02T12:34:59.392Z,74.22
2023-09-02T12:35:59.394Z,73.28
2023-09-02T12:37:00.133Z,72.89
2023-09-02T12:37:59.245Z,73.19
2023-09-02T12:38:59.357Z,72.99
2023-09-02T12:40:00.193Z,73.09
2023-09-02T12:40:59.249Z,72.09
2023-09-02T12:41:59.236Z,72.59
2023-09-02T12:42:59.181Z,72.78
2023-09-02T12:43:59.141Z,72.89
2023-09-02T12:45:01.729Z,73.19
2023-09-02T12:45:59.184Z,73.05
2023-09-02T12:46:59.168Z,72.35
2023-09-02T12:47:59.276Z,72.25
2023-09-02T12:48:59.098Z,72.35
2023-09-02T12:49:59.076Z,72.45
2023-09-02T12:50:59.089Z,72.05
2023-09-02T12:51:59.093Z,72.35